Troy, NY

3:57 AM EDT on April 29, 2017 (GMT -0400)
Meadow Estates (near Town Hall) | | Change Station

Elev 325 ft 42.86 °N, 73.83 °W | Updated 60 seconds ago

Rain
Rain
58.8 °F
Feels Like 58.8 °F
N
0.0
Wind Variable Wind from NNE
Gusts 0.0 mph

Today
High -- | Low -- °F
--% Chance of Precip.
Yesterday
High -- | Low -- °F
Precip. -- in
Pressure 29.99 in
Visibility 10.0 miles
Clouds Few 7500 ft
Mostly Cloudy 8500 ft
Overcast 11000 ft
Dew Point 55.0 °F
Humidity 88%
Rainfall 0.00 in
Snow Depth Not available.
5:51 AM 7:53 PM
Waxing Crescent, 12% visible
METAR KALB 290751Z 13003KT 10SM -DZ FEW075 BKN085 OVC110 17/11 A2999 RMK AO2 RAB09E50DZB50 SLP153 PCPN VRY LGT P0000 T01720111
Pressure 29.99 in
Visibility 10.0 miles
Clouds Few 7500 ft
Mostly Cloudy 8500 ft
Overcast 11000 ft
Dew Point 55.0 °F
Humidity 88%
Rainfall 0.00 in
Snow Depth Not available.
5:51 AM 7:53 PM
Waxing Crescent, 12% visible
METAR KALB 290751Z 13003KT 10SM -DZ FEW075 BKN085 OVC110 17/11 A2999 RMK AO2 RAB09E50DZB50 SLP153 PCPN VRY LGT P0000 T01720111

Get Severe Weather Alerts

Thanks for signing up!

Be on the lookout for a verification email in your inbox.

You'll start receiving the daily forecast at 8 AM.

×

10-Day Weather Forecast

Almanac

Astronomy

Apr. 29, 2017 Rise Set
Actual Time
Civil Twilight
Nautical Twilight
Astronomical Twilight
Moon
Length of Visible Light
Length of Day
Tomorrow will be .
, % of the Moon is Illuminated

Today's Extremes

State Highs State Lows

Community

WunderPhotos

WunderBlog® & News

Nearby

Air Quality

  Air Quality AQ Index Pollutant
Not available.

Snow Depth

Station Depth Elevation

Earthquake Activity

City Distance Mag. Time & Date
Minimum magnitude displayed is 2.5.

Coastal Water Temperatures

Place Temperature

Stations

Nearby Weather Stations

Station Location Temp. Windchill Dew Point Humidity Wind Precip. Elev Updated Type
                   

Watches & Warnings

There are currently no watches in effect.